sensor_id;sensor_type;location;lat;lon;timestamp;pressure;altitude;pressure_sealevel;temperature;humidity
52441;BME280;39611;46.062;8.950;2023-02-12T00:00:49;97936.16;;;2.37;55.80
52441;BME280;39611;46.062;8.950;2023-02-12T00:03:17;97935.22;;;2.45;55.55
52441;BME280;39611;46.062;8.950;2023-02-12T00:05:43;97929.59;;;2.42;56.38
52441;BME280;39611;46.062;8.950;2023-02-12T00:08:10;97927.81;;;2.49;55.95
52441;BME280;39611;46.062;8.950;2023-02-12T00:10:42;97922.84;;;2.32;57.12
52441;BME280;39611;46.062;8.950;2023-02-12T00:13:10;97915.78;;;2.48;55.64
52441;BME280;39611;46.062;8.950;2023-02-12T00:15:41;97922.00;;;2.47;56.19
52441;BME280;39611;46.062;8.950;2023-02-12T00:18:07;97902.53;;;2.49;56.16
52441;BME280;39611;46.062;8.950;2023-02-12T00:20:36;97905.94;;;2.50;56.40
52441;BME280;39611;46.062;8.950;2023-02-12T00:23:03;97916.19;;;2.30;57.47
52441;BME280;39611;46.062;8.950;2023-02-12T00:25:29;97908.31;;;2.45;55.72
52441;BME280;39611;46.062;8.950;2023-02-12T00:27:56;97898.59;;;2.38;56.58
52441;BME280;39611;46.062;8.950;2023-02-12T00:30:22;97891.22;;;2.42;56.77
52441;BME280;39611;46.062;8.950;2023-02-12T00:32:49;97894.63;;;2.43;57.24
52441;BME280;39611;46.062;8.950;2023-02-12T00:35:15;97904.06;;;2.44;57.12
52441;BME280;39611;46.062;8.950;2023-02-12T00:37:42;97902.81;;;2.18;58.74
52441;BME280;39611;46.062;8.950;2023-02-12T00:40:09;97908.38;;;2.15;58.20
52441;BME280;39611;46.062;8.950;2023-02-12T00:42:35;97904.81;;;2.37;56.71
52441;BME280;39611;46.062;8.950;2023-02-12T00:45:02;97906.44;;;2.38;56.79
52441;BME280;39611;46.062;8.950;2023-02-12T00:47:28;97882.13;;;2.38;57.66
52441;BME280;39611;46.062;8.950;2023-02-12T00:49:55;97891.25;;;2.27;58.36
52441;BME280;39611;46.062;8.950;2023-02-12T00:52:21;97899.50;;;2.09;59.72
52441;BME280;39611;46.062;8.950;2023-02-12T00:54:47;97898.56;;;2.17;57.61
52441;BME280;39611;46.062;8.950;2023-02-12T00:57:14;97903.06;;;2.23;58.12
52441;BME280;39611;46.062;8.950;2023-02-12T00:59:40;97901.28;;;2.24;58.18
52441;BME280;39611;46.062;8.950;2023-02-12T01:02:08;97895.03;;;2.25;58.34
52441;BME280;39611;46.062;8.950;2023-02-12T01:04:34;97891.59;;;2.39;57.46
52441;BME280;39611;46.062;8.950;2023-02-12T01:07:01;97887.53;;;2.36;57.80
52441;BME280;39611;46.062;8.950;2023-02-12T01:09:27;97898.56;;;2.17;58.90
52441;BME280;39611;46.062;8.950;2023-02-12T01:11:54;97893.34;;;2.17;59.22
52441;BME280;39611;46.062;8.950;2023-02-12T01:14:20;97887.22;;;2.25;58.12
52441;BME280;39611;46.062;8.950;2023-02-12T01:16:47;97887.59;;;2.43;56.83
52441;BME280;39611;46.062;8.950;2023-02-12T01:19:13;97895.31;;;2.15;58.08
52441;BME280;39611;46.062;8.950;2023-02-12T01:21:40;97895.06;;;2.10;57.94
52441;BME280;39611;46.062;8.950;2023-02-12T01:24:06;97901.69;;;2.27;57.04
52441;BME280;39611;46.062;8.950;2023-02-12T01:26:33;97897.63;;;2.39;57.09
52441;BME280;39611;46.062;8.950;2023-02-12T01:29:02;97892.00;;;2.43;56.80
52441;BME280;39611;46.062;8.950;2023-02-12T01:31:31;97883.75;;;2.39;56.63
52441;BME280;39611;46.062;8.950;2023-02-12T01:33:59;97879.72;;;2.36;56.92
52441;BME280;39611;46.062;8.950;2023-02-12T01:36:27;97881.75;;;2.41;56.76
52441;BME280;39611;46.062;8.950;2023-02-12T01:38:55;97888.72;;;2.34;56.91
52441;BME280;39611;46.062;8.950;2023-02-12T01:41:25;97883.53;;;2.19;57.28
52441;BME280;39611;46.062;8.950;2023-02-12T01:44:19;97874.28;;;2.16;58.21
52441;BME280;39611;46.062;8.950;2023-02-12T01:46:54;97868.50;;;2.21;57.70
52441;BME280;39611;46.062;8.950;2023-02-12T01:49:28;97873.47;;;2.16;58.19
52441;BME280;39611;46.062;8.950;2023-02-12T01:54:33;97868.88;;;2.18;58.61
52441;BME280;39611;46.062;8.950;2023-02-12T01:57:02;97870.66;;;2.17;58.84
52441;BME280;39611;46.062;8.950;2023-02-12T01:59:30;97871.13;;;2.43;58.14
52441;BME280;39611;46.062;8.950;2023-02-12T02:01:58;97869.22;;;2.15;59.73
52441;BME280;39611;46.062;8.950;2023-02-12T02:04:30;97866.19;;;2.33;59.65
52441;BME280;39611;46.062;8.950;2023-02-12T02:07:00;97862.53;;;2.27;59.99
52441;BME280;39611;46.062;8.950;2023-02-12T02:09:29;97871.94;;;2.07;61.04
52441;BME280;39611;46.062;8.950;2023-02-12T02:11:56;97866.31;;;2.25;59.00
52441;BME280;39611;46.062;8.950;2023-02-12T02:14:42;97869.16;;;2.08;60.65
52441;BME280;39611;46.062;8.950;2023-02-12T02:23:26;97856.06;;;2.23;59.66
52441;BME280;39611;46.062;8.950;2023-02-12T02:26:27;97856.16;;;2.15;60.75
52441;BME280;39611;46.062;8.950;2023-02-12T02:31:41;97846.78;;;1.99;61.24
52441;BME280;39611;46.062;8.950;2023-02-12T02:34:23;97843.72;;;1.95;61.26
52441;BME280;39611;46.062;8.950;2023-02-12T02:37:09;97851.88;;;2.07;61.20
52441;BME280;39611;46.062;8.950;2023-02-12T02:39:47;97853.06;;;2.05;61.54
52441;BME280;39611;46.062;8.950;2023-02-12T02:42:30;97835.50;;;2.13;61.35
52441;BME280;39611;46.062;8.950;2023-02-12T02:45:03;97832.25;;;2.11;60.50
52441;BME280;39611;46.062;8.950;2023-02-12T02:47:45;97824.75;;;2.23;60.65
52441;BME280;39611;46.062;8.950;2023-02-12T02:50:16;97823.38;;;2.06;61.67
52441;BME280;39611;46.062;8.950;2023-02-12T02:53:01;97819.75;;;2.07;61.12
52441;BME280;39611;46.062;8.950;2023-02-12T02:55:32;97817.94;;;2.07;61.77
52441;BME280;39611;46.062;8.950;2023-02-12T02:58:08;97818.66;;;2.16;61.78
52441;BME280;39611;46.062;8.950;2023-02-12T03:00:39;97816.16;;;2.08;61.59
52441;BME280;39611;46.062;8.950;2023-02-12T03:03:23;97826.16;;;2.04;61.24
52441;BME280;39611;46.062;8.950;2023-02-12T03:05:54;97823.50;;;2.19;60.86
52441;BME280;39611;46.062;8.950;2023-02-12T03:08:30;97823.00;;;2.30;60.50
52441;BME280;39611;46.062;8.950;2023-02-12T03:11:05;97824.59;;;2.10;61.74
52441;BME280;39611;46.062;8.950;2023-02-12T03:13:37;97827.94;;;2.04;61.63
52441;BME280;39611;46.062;8.950;2023-02-12T03:18:55;97828.63;;;2.12;60.81
52441;BME280;39611;46.062;8.950;2023-02-12T03:21:34;97822.88;;;2.17;61.29
52441;BME280;39611;46.062;8.950;2023-02-12T03:27:01;97816.66;;;2.18;60.82
52441;BME280;39611;46.062;8.950;2023-02-12T03:29:29;97817.94;;;2.07;60.57
52441;BME280;39611;46.062;8.950;2023-02-12T03:35:40;97808.91;;;1.88;62.64
52441;BME280;39611;46.062;8.950;2023-02-12T03:37:56;97810.06;;;2.01;61.69
52441;BME280;39611;46.062;8.950;2023-02-12T03:40:33;97817.44;;;1.97;61.50
52441;BME280;39611;46.062;8.950;2023-02-12T03:43:20;97811.25;;;1.98;61.20
52441;BME280;39611;46.062;8.950;2023-02-12T03:45:53;97814.22;;;1.95;61.66
52441;BME280;39611;46.062;8.950;2023-02-12T03:48:27;97819.25;;;1.96;61.56
52441;BME280;39611;46.062;8.950;2023-02-12T03:51:17;97823.69;;;1.81;62.61
52441;BME280;39611;46.062;8.950;2023-02-12T03:53:45;97824.91;;;2.00;62.31
52441;BME280;39611;46.062;8.950;2023-02-12T03:56:18;97839.22;;;1.89;62.96
52441;BME280;39611;46.062;8.950;2023-02-12T03:58:45;97842.00;;;2.03;62.48
52441;BME280;39611;46.062;8.950;2023-02-12T04:01:12;97837.09;;;1.78;64.01
52441;BME280;39611;46.062;8.950;2023-02-12T04:03:40;97845.59;;;2.02;63.07
52441;BME280;39611;46.062;8.950;2023-02-12T04:06:20;97840.88;;;2.12;62.88
52441;BME280;39611;46.062;8.950;2023-02-12T04:08:47;97841.75;;;2.19;62.29
52441;BME280;39611;46.062;8.950;2023-02-12T04:14:14;97846.66;;;2.07;62.93
52441;BME280;39611;46.062;8.950;2023-02-12T04:17:21;97848.03;;;2.25;61.78
52441;BME280;39611;46.062;8.950;2023-02-12T04:23:09;97852.47;;;2.24;61.84
52441;BME280;39611;46.062;8.950;2023-02-12T04:28:50;97837.16;;;2.21;61.74
52441;BME280;39611;46.062;8.950;2023-02-12T04:34:14;97845.34;;;1.96;63.24
52441;BME280;39611;46.062;8.950;2023-02-12T04:39:21;97847.00;;;1.83;64.06
52441;BME280;39611;46.062;8.950;2023-02-12T04:41:48;97849.47;;;2.06;62.72
52441;BME280;39611;46.062;8.950;2023-02-12T04:44:27;97845.94;;;1.77;65.05
52441;BME280;39611;46.062;8.950;2023-02-12T04:46:53;97839.09;;;1.76;64.26
52441;BME280;39611;46.062;8.950;2023-02-12T04:49:21;97843.59;;;1.82;64.25
52441;BME280;39611;46.062;8.950;2023-02-12T04:51:48;97849.09;;;1.72;64.83
52441;BME280;39611;46.062;8.950;2023-02-12T04:54:16;97842.16;;;1.80;64.51
52441;BME280;39611;46.062;8.950;2023-02-12T04:56:44;97855.38;;;1.63;65.30
52441;BME280;39611;46.062;8.950;2023-02-12T04:59:11;97846.22;;;1.67;64.22
52441;BME280;39611;46.062;8.950;2023-02-12T05:01:39;97845.94;;;1.77;64.06
52441;BME280;39611;46.062;8.950;2023-02-12T05:04:07;97850.03;;;1.86;63.99
52441;BME280;39611;46.062;8.950;2023-02-12T05:06:34;97842.84;;;1.88;63.94
52441;BME280;39611;46.062;8.950;2023-02-12T05:09:02;97838.00;;;1.85;63.77
52441;BME280;39611;46.062;8.950;2023-02-12T05:11:28;97844.25;;;2.06;62.27
52441;BME280;39611;46.062;8.950;2023-02-12T05:13:55;97831.50;;;1.81;63.74
52441;BME280;39611;46.062;8.950;2023-02-12T05:16:22;97827.19;;;1.88;63.58
52441;BME280;39611;46.062;8.950;2023-02-12T05:18:48;97824.69;;;1.80;63.22
52441;BME280;39611;46.062;8.950;2023-02-12T05:21:15;97821.72;;;1.68;63.14
52441;BME280;39611;46.062;8.950;2023-02-12T05:23:42;97827.94;;;1.82;62.66
52441;BME280;39611;46.062;8.950;2023-02-12T05:26:13;97820.09;;;1.82;63.09
52441;BME280;39611;46.062;8.950;2023-02-12T05:28:40;97826.41;;;1.73;63.71
52441;BME280;39611;46.062;8.950;2023-02-12T05:31:13;97810.22;;;1.99;61.89
52441;BME280;39611;46.062;8.950;2023-02-12T05:33:42;97813.75;;;1.70;63.28
52441;BME280;39611;46.062;8.950;2023-02-12T05:36:12;97812.41;;;1.95;61.98
52441;BME280;39611;46.062;8.950;2023-02-12T05:38:39;97820.25;;;1.95;62.46
52441;BME280;39611;46.062;8.950;2023-02-12T05:41:14;97821.72;;;1.68;64.26
52441;BME280;39611;46.062;8.950;2023-02-12T05:43:41;97822.91;;;1.66;64.04
52441;BME280;39611;46.062;8.950;2023-02-12T05:46:08;97822.63;;;1.75;63.05
52441;BME280;39611;46.062;8.950;2023-02-12T05:48:36;97826.66;;;1.78;62.45
52441;BME280;39611;46.062;8.950;2023-02-12T05:51:04;97820.16;;;1.89;62.29
52441;BME280;39611;46.062;8.950;2023-02-12T05:53:31;97817.69;;;2.02;62.10
52441;BME280;39611;46.062;8.950;2023-02-12T05:56:24;97810.97;;;1.71;64.02
52441;BME280;39611;46.062;8.950;2023-02-12T05:58:53;97816.44;;;1.77;63.48
52441;BME280;39611;46.062;8.950;2023-02-12T06:01:26;97809.97;;;1.94;62.72
52441;BME280;39611;46.062;8.950;2023-02-12T06:03:53;97820.28;;;1.81;64.12
52441;BME280;39611;46.062;8.950;2023-02-12T06:06:20;97816.81;;;1.59;65.32
52441;BME280;39611;46.062;8.950;2023-02-12T06:08:47;97822.09;;;1.80;64.14
52441;BME280;39611;46.062;8.950;2023-02-12T06:11:15;97823.00;;;1.58;65.53
52441;BME280;39611;46.062;8.950;2023-02-12T06:13:43;97815.50;;;1.84;64.03
52441;BME280;39611;46.062;8.950;2023-02-12T06:16:39;97819.03;;;1.77;64.32
52441;BME280;39611;46.062;8.950;2023-02-12T06:19:05;97816.47;;;1.62;65.10
52441;BME280;39611;46.062;8.950;2023-02-12T06:21:32;97814.25;;;1.80;64.16
52441;BME280;39611;46.062;8.950;2023-02-12T06:23:59;97818.31;;;1.68;65.06
52441;BME280;39611;46.062;8.950;2023-02-12T06:26:26;97813.81;;;1.77;64.45
52441;BME280;39611;46.062;8.950;2023-02-12T06:28:53;97826.03;;;1.76;65.09
52441;BME280;39611;46.062;8.950;2023-02-12T06:31:28;97825.97;;;1.69;65.21
52441;BME280;39611;46.062;8.950;2023-02-12T06:33:57;97838.28;;;1.75;64.93
52441;BME280;39611;46.062;8.950;2023-02-12T06:36:24;97838.56;;;1.66;66.09
52441;BME280;39611;46.062;8.950;2023-02-12T06:38:51;97839.13;;;1.98;64.27
52441;BME280;39611;46.062;8.950;2023-02-12T06:41:18;97832.16;;;2.05;64.59
52441;BME280;39611;46.062;8.950;2023-02-12T06:43:44;97839.72;;;1.78;66.54
52441;BME280;39611;46.062;8.950;2023-02-12T06:46:11;97836.13;;;1.79;66.12
52441;BME280;39611;46.062;8.950;2023-02-12T06:48:38;97848.00;;;1.82;65.98
52441;BME280;39611;46.062;8.950;2023-02-12T06:51:10;97842.22;;;1.86;66.52
52441;BME280;39611;46.062;8.950;2023-02-12T06:53:37;97844.81;;;1.86;66.35
52441;BME280;39611;46.062;8.950;2023-02-12T06:56:05;97849.38;;;1.99;66.30
52441;BME280;39611;46.062;8.950;2023-02-12T06:58:32;97847.28;;;2.09;66.66
52441;BME280;39611;46.062;8.950;2023-02-12T07:01:09;97853.94;;;1.75;68.22
52441;BME280;39611;46.062;8.950;2023-02-12T07:03:40;97854.53;;;1.92;67.14
52441;BME280;39611;46.062;8.950;2023-02-12T07:06:07;97853.78;;;1.62;69.49
52441;BME280;39611;46.062;8.950;2023-02-12T07:08:34;97858.28;;;2.05;67.23
52441;BME280;39611;46.062;8.950;2023-02-12T07:11:01;97850.03;;;1.86;68.53
52441;BME280;39611;46.062;8.950;2023-02-12T07:13:28;97858.28;;;2.05;67.82
52441;BME280;39611;46.062;8.950;2023-02-12T07:15:54;97861.75;;;2.12;67.14
52441;BME280;39611;46.062;8.950;2023-02-12T07:18:21;97861.38;;;1.93;68.05
52441;BME280;39611;46.062;8.950;2023-02-12T07:20:48;97873.72;;;2.21;67.41
52441;BME280;39611;46.062;8.950;2023-02-12T07:23:14;97879.06;;;2.13;68.10
52441;BME280;39611;46.062;8.950;2023-02-12T07:25:40;97879.75;;;2.22;67.44
52441;BME280;39611;46.062;8.950;2023-02-12T07:28:07;97875.59;;;2.27;67.53
52441;BME280;39611;46.062;8.950;2023-02-12T07:30:33;97879.06;;;2.13;68.39
52441;BME280;39611;46.062;8.950;2023-02-12T07:33:00;97881.19;;;2.24;66.98
52441;BME280;39611;46.062;8.950;2023-02-12T07:35:26;97879.50;;;2.38;66.70
52441;BME280;39611;46.062;8.950;2023-02-12T07:37:53;97880.06;;;2.33;66.90
52441;BME280;39611;46.062;8.950;2023-02-12T07:40:19;97875.09;;;2.38;66.64
52441;BME280;39611;46.062;8.950;2023-02-12T07:42:45;97878.06;;;2.35;67.16
52441;BME280;39611;46.062;8.950;2023-02-12T07:45:15;97879.34;;;2.39;65.98
52441;BME280;39611;46.062;8.950;2023-02-12T07:47:41;97885.31;;;2.55;65.71
52441;BME280;39611;46.062;8.950;2023-02-12T07:50:08;97889.03;;;2.46;66.54
52441;BME280;39611;46.062;8.950;2023-02-12T07:52:34;97883.63;;;2.47;67.06
52441;BME280;39611;46.062;8.950;2023-02-12T07:55:01;97893.44;;;2.24;68.17
52441;BME280;39611;46.062;8.950;2023-02-12T07:57:28;97892.13;;;2.56;66.96
52441;BME280;39611;46.062;8.950;2023-02-12T07:59:54;97886.03;;;2.49;67.45
52441;BME280;39611;46.062;8.950;2023-02-12T08:02:21;97890.53;;;2.55;66.72
52441;BME280;39611;46.062;8.950;2023-02-12T08:04:47;97892.09;;;2.49;67.51
52441;BME280;39611;46.062;8.950;2023-02-12T08:07:14;97889.78;;;2.61;67.04
52441;BME280;39611;46.062;8.950;2023-02-12T08:09:41;97896.81;;;2.60;67.50
52441;BME280;39611;46.062;8.950;2023-02-12T08:12:07;97891.28;;;2.70;67.42
52441;BME280;39611;46.062;8.950;2023-02-12T08:14:34;97893.13;;;2.76;67.06
52441;BME280;39611;46.062;8.950;2023-02-12T08:17:00;97882.34;;;2.86;66.10
52441;BME280;39611;46.062;8.950;2023-02-12T08:19:27;97890.25;;;2.93;65.73
52441;BME280;39611;46.062;8.950;2023-02-12T08:21:54;97884.75;;;2.88;65.39
52441;BME280;39611;46.062;8.950;2023-02-12T08:24:22;97883.78;;;2.89;65.39
52441;BME280;39611;46.062;8.950;2023-02-12T08:26:49;97883.34;;;3.13;64.74
52441;BME280;39611;46.062;8.950;2023-02-12T08:29:18;97884.78;;;3.16;65.35
52441;BME280;39611;46.062;8.950;2023-02-12T08:31:47;97884.28;;;3.27;65.26
52441;BME280;39611;46.062;8.950;2023-02-12T08:34:19;97894.53;;;3.28;64.70
52441;BME280;39611;46.062;8.950;2023-02-12T08:36:48;97887.94;;;3.33;63.59
52441;BME280;39611;46.062;8.950;2023-02-12T08:39:15;97886.69;;;3.28;63.81
52441;BME280;39611;46.062;8.950;2023-02-12T08:41:42;97894.03;;;3.46;62.71
52441;BME280;39611;46.062;8.950;2023-02-12T08:44:10;97889.09;;;3.65;62.92
52441;BME280;39611;46.062;8.950;2023-02-12T08:46:39;97893.69;;;3.56;64.30
52441;BME280;39611;46.062;8.950;2023-02-12T08:49:10;97901.44;;;3.78;63.14
52441;BME280;39611;46.062;8.950;2023-02-12T08:51:39;97898.38;;;3.67;61.51
52441;BME280;39611;46.062;8.950;2023-02-12T08:54:09;97902.53;;;3.90;60.08
52441;BME280;39611;46.062;8.950;2023-02-12T08:56:37;97900.13;;;3.95;61.17
52441;BME280;39611;46.062;8.950;2023-02-12T08:59:05;97896.09;;;3.99;61.84
52441;BME280;39611;46.062;8.950;2023-02-12T09:01:34;97896.72;;;4.01;62.84
52441;BME280;39611;46.062;8.950;2023-02-12T09:04:01;97890.63;;;3.94;62.88
52441;BME280;39611;46.062;8.950;2023-02-12T09:06:27;97891.50;;;4.08;61.21
52441;BME280;39611;46.062;8.950;2023-02-12T09:08:54;97889.16;;;4.26;61.72
52441;BME280;39611;46.062;8.950;2023-02-12T09:11:24;97897.22;;;4.38;59.49
52441;BME280;39611;46.062;8.950;2023-02-12T09:14:01;97894.59;;;4.31;61.63
52441;BME280;39611;46.062;8.950;2023-02-12T09:16:30;97898.66;;;4.54;59.09
52441;BME280;39611;46.062;8.950;2023-02-12T09:18:57;97898.28;;;4.64;58.93
52441;BME280;39611;46.062;8.950;2023-02-12T09:21:24;97900.50;;;4.67;59.04
52441;BME280;39611;46.062;8.950;2023-02-12T09:23:50;97904.16;;;4.79;58.21
52441;BME280;39611;46.062;8.950;2023-02-12T09:26:20;97908.38;;;5.00;57.71
52441;BME280;39611;46.062;8.950;2023-02-12T09:28:48;97902.97;;;5.01;57.32
52441;BME280;39611;46.062;8.950;2023-02-12T09:31:18;97907.78;;;4.98;58.88
52441;BME280;39611;46.062;8.950;2023-02-12T09:33:46;97910.81;;;4.95;58.29
52441;BME280;39611;46.062;8.950;2023-02-12T09:36:18;97919.09;;;5.18;56.52
52441;BME280;39611;46.062;8.950;2023-02-12T09:38:45;97909.63;;;5.24;56.10
52441;BME280;39611;46.062;8.950;2023-02-12T09:44:20;97912.53;;;5.74;53.94
52441;BME280;39611;46.062;8.950;2023-02-12T09:47:01;97906.31;;;5.68;53.83
52441;BME280;39611;46.062;8.950;2023-02-12T09:52:27;97914.09;;;5.88;53.66
52441;BME280;39611;46.062;8.950;2023-02-12T09:54:57;97914.91;;;6.02;53.26
52441;BME280;39611;46.062;8.950;2023-02-12T09:57:27;97913.50;;;6.00;53.73
52441;BME280;39611;46.062;8.950;2023-02-12T10:02:36;97926.00;;;6.04;53.40
52441;BME280;39611;46.062;8.950;2023-02-12T10:05:04;97920.06;;;6.22;52.77
52441;BME280;39611;46.062;8.950;2023-02-12T10:08:05;97913.75;;;6.37;51.47
52441;BME280;39611;46.062;8.950;2023-02-12T10:22:25;97922.94;;;6.84;48.74
52441;BME280;39611;46.062;8.950;2023-02-12T10:27:42;97923.41;;;6.74;49.05
52441;BME280;39611;46.062;8.950;2023-02-12T10:30:21;97923.94;;;7.15;48.40
52441;BME280;39611;46.062;8.950;2023-02-12T10:32:52;97925.88;;;7.01;48.67
52441;BME280;39611;46.062;8.950;2023-02-12T10:35:20;97923.13;;;7.14;48.27
52441;BME280;39611;46.062;8.950;2023-02-12T10:37:59;97922.09;;;7.15;48.68
52441;BME280;39611;46.062;8.950;2023-02-12T10:40:30;97924.47;;;7.23;48.56
52441;BME280;39611;46.062;8.950;2023-02-12T10:43:00;97921.84;;;7.23;48.82
52441;BME280;39611;46.062;8.950;2023-02-12T10:45:33;97931.88;;;7.33;48.64
52441;BME280;39611;46.062;8.950;2023-02-12T10:48:13;97927.69;;;7.51;47.39
52441;BME280;39611;46.062;8.950;2023-02-12T10:53:22;97922.28;;;7.64;47.26
52441;BME280;39611;46.062;8.950;2023-02-12T10:56:11;97916.22;;;8.00;46.11
52441;BME280;39611;46.062;8.950;2023-02-12T10:58:41;97917.09;;;7.94;46.48
52441;BME280;39611;46.062;8.950;2023-02-12T11:01:21;97914.91;;;8.09;46.20
52441;BME280;39611;46.062;8.950;2023-02-12T11:03:51;97922.66;;;8.04;47.00
52441;BME280;39611;46.062;8.950;2023-02-12T11:06:37;97920.59;;;8.06;47.85
52441;BME280;39611;46.062;8.950;2023-02-12T11:09:04;97914.88;;;7.91;48.79
52441;BME280;39611;46.062;8.950;2023-02-12T11:11:37;97904.13;;;7.93;49.03
52441;BME280;39611;46.062;8.950;2023-02-12T11:14:06;97909.19;;;8.13;48.75
52441;BME280;39611;46.062;8.950;2023-02-12T11:16:59;97903.81;;;8.19;48.48
52441;BME280;39611;46.062;8.950;2023-02-12T11:19:30;97904.19;;;8.41;47.55
52441;BME280;39611;46.062;8.950;2023-02-12T11:22:06;97911.06;;;8.42;47.92
52441;BME280;39611;46.062;8.950;2023-02-12T11:24:35;97908.94;;;8.63;47.75
52441;BME280;39611;46.062;8.950;2023-02-12T11:29:42;97904.06;;;8.78;46.82
52441;BME280;39611;46.062;8.950;2023-02-12T11:32:18;97905.53;;;8.74;47.68
52441;BME280;39611;46.062;8.950;2023-02-12T11:37:32;97898.78;;;8.78;46.55
52441;BME280;39611;46.062;8.950;2023-02-12T11:40:02;97892.03;;;8.82;46.97
52441;BME280;39611;46.062;8.950;2023-02-12T11:42:33;97891.16;;;9.12;45.55
52441;BME280;39611;46.062;8.950;2023-02-12T11:45:01;97886.19;;;9.15;44.86
52441;BME280;39611;46.062;8.950;2023-02-12T11:47:30;97879.66;;;8.94;46.30
52441;BME280;39611;46.062;8.950;2023-02-12T11:50:04;97881.38;;;9.36;44.94
52441;BME280;39611;46.062;8.950;2023-02-12T11:52:34;97886.91;;;9.34;44.92
52441;BME280;39611;46.062;8.950;2023-02-12T11:55:05;97881.97;;;9.26;46.11
52441;BME280;39611;46.062;8.950;2023-02-12T11:57:45;97879.31;;;9.03;46.48
52441;BME280;39611;46.062;8.950;2023-02-12T12:00:22;97879.22;;;9.21;45.37
52441;BME280;39611;46.062;8.950;2023-02-12T12:03:20;97871.19;;;9.16;45.52
52441;BME280;39611;46.062;8.950;2023-02-12T12:11:25;97869.22;;;9.35;46.03
52441;BME280;39611;46.062;8.950;2023-02-12T12:14:14;97873.38;;;9.43;45.02
52441;BME280;39611;46.062;8.950;2023-02-12T12:19:34;97870.16;;;9.52;44.12
52441;BME280;39611;46.062;8.950;2023-02-12T12:33:00;97872.97;;;9.74;43.53
52441;BME280;39611;46.062;8.950;2023-02-12T12:35:40;97864.25;;;9.62;43.79
52441;BME280;39611;46.062;8.950;2023-02-12T12:38:39;97857.06;;;9.98;41.95
52441;BME280;39611;46.062;8.950;2023-02-12T12:44:04;97849.19;;;10.15;41.29
52441;BME280;39611;46.062;8.950;2023-02-12T12:49:27;97853.75;;;10.19;41.69
52441;BME280;39611;46.062;8.950;2023-02-12T12:52:35;97848.00;;;9.94;41.61
52441;BME280;39611;46.062;8.950;2023-02-12T12:55:20;97849.09;;;10.10;41.18
52441;BME280;39611;46.062;8.950;2023-02-12T12:58:37;97845.28;;;10.17;40.74
52441;BME280;39611;46.062;8.950;2023-02-12T13:08:53;97837.34;;;10.46;40.71
52441;BME280;39611;46.062;8.950;2023-02-12T13:14:23;97828.97;;;10.37;41.85
52441;BME280;39611;46.062;8.950;2023-02-12T13:16:59;97820.03;;;10.55;40.67
52441;BME280;39611;46.062;8.950;2023-02-12T13:24:45;97814.59;;;10.62;40.29
52441;BME280;39611;46.062;8.950;2023-02-12T13:27:24;97818.81;;;10.46;40.50
52441;BME280;39611;46.062;8.950;2023-02-12T13:29:57;97814.91;;;10.65;40.43
52441;BME280;39611;46.062;8.950;2023-02-12T13:32:31;97814.19;;;10.70;40.17
52441;BME280;39611;46.062;8.950;2023-02-12T13:35:00;97815.47;;;10.84;38.82
52441;BME280;39611;46.062;8.950;2023-02-12T13:40:04;97814.66;;;10.67;39.66
52441;BME280;39611;46.062;8.950;2023-02-12T13:42:54;97813.97;;;10.71;40.20
52441;BME280;39611;46.062;8.950;2023-02-12T13:54:05;97811.75;;;11.19;40.02
52441;BME280;39611;46.062;8.950;2023-02-12T13:56:47;97813.44;;;11.08;39.47
52441;BME280;39611;46.062;8.950;2023-02-12T14:02:05;97817.59;;;11.21;38.87
52441;BME280;39611;46.062;8.950;2023-02-12T14:05:23;97823.41;;;11.01;39.74
52441;BME280;39611;46.062;8.950;2023-02-12T14:08:05;97820.34;;;10.76;40.69
52441;BME280;39611;46.062;8.950;2023-02-12T14:10:39;97820.69;;;10.79;40.89
52441;BME280;39611;46.062;8.950;2023-02-12T14:13:16;97825.63;;;11.09;40.05
52441;BME280;39611;46.062;8.950;2023-02-12T14:15:48;97826.47;;;10.93;40.00
52441;BME280;39611;46.062;8.950;2023-02-12T14:18:28;97819.09;;;10.95;40.18
52441;BME280;39611;46.062;8.950;2023-02-12T14:26:59;97833.84;;;11.08;38.93
52441;BME280;39611;46.062;8.950;2023-02-12T14:29:26;97835.50;;;10.97;40.04
52441;BME280;39611;46.062;8.950;2023-02-12T14:31:53;97837.34;;;10.97;39.23
52441;BME280;39611;46.062;8.950;2023-02-12T14:37:15;97840.50;;;10.93;39.94
52441;BME280;39611;46.062;8.950;2023-02-12T14:39:43;97834.47;;;10.81;40.00
52441;BME280;39611;46.062;8.950;2023-02-12T14:44:56;97831.75;;;10.76;40.08
52441;BME280;39611;46.062;8.950;2023-02-12T14:50:05;97839.03;;;10.86;38.77
52441;BME280;39611;46.062;8.950;2023-02-12T14:52:38;97845.72;;;10.71;39.19
52441;BME280;39611;46.062;8.950;2023-02-12T14:55:32;97843.16;;;10.77;39.08
52441;BME280;39611;46.062;8.950;2023-02-12T14:58:03;97844.88;;;10.71;39.71
52441;BME280;39611;46.062;8.950;2023-02-12T15:00:34;97850.19;;;10.54;40.51
52441;BME280;39611;46.062;8.950;2023-02-12T15:03:15;97850.00;;;10.61;39.42
52441;BME280;39611;46.062;8.950;2023-02-12T15:08:40;97849.53;;;10.47;38.51
52441;BME280;39611;46.062;8.950;2023-02-12T15:17:07;97864.91;;;10.50;38.01
52441;BME280;39611;46.062;8.950;2023-02-12T15:19:49;97860.19;;;10.52;37.24
52441;BME280;39611;46.062;8.950;2023-02-12T15:22:30;97865.56;;;10.57;37.20
52441;BME280;39611;46.062;8.950;2023-02-12T15:25:30;97870.38;;;10.60;37.74
52441;BME280;39611;46.062;8.950;2023-02-12T15:28:03;97868.69;;;10.54;37.86
52441;BME280;39611;46.062;8.950;2023-02-12T15:30:33;97866.66;;;10.44;38.31
52441;BME280;39611;46.062;8.950;2023-02-12T15:33:03;97877.72;;;10.41;38.77
52441;BME280;39611;46.062;8.950;2023-02-12T15:35:36;97888.34;;;10.30;39.32
52441;BME280;39611;46.062;8.950;2023-02-12T15:38:04;97895.84;;;10.21;39.33
52441;BME280;39611;46.062;8.950;2023-02-12T15:40:33;97896.53;;;10.16;39.67
52441;BME280;39611;46.062;8.950;2023-02-12T15:43:00;97893.66;;;10.18;39.89
52441;BME280;39611;46.062;8.950;2023-02-12T15:45:32;97895.88;;;10.09;40.25
52441;BME280;39611;46.062;8.950;2023-02-12T15:50:46;97905.53;;;10.03;40.81
52441;BME280;39611;46.062;8.950;2023-02-12T15:53:15;97909.66;;;10.11;40.50
52441;BME280;39611;46.062;8.950;2023-02-12T15:55:45;97920.13;;;10.06;40.62
52441;BME280;39611;46.062;8.950;2023-02-12T15:58:32;97914.97;;;9.99;40.92
52441;BME280;39611;46.062;8.950;2023-02-12T16:01:04;97917.41;;;9.89;40.75